Time;durP1;ratioP1;P1;durP2;ratioP2;P2;SDS_P1;SDS_P2;PMS_P1;PMS_P2;Temp;Humidity;BMP_temperature;BMP_pressure;BME280_temperature;BME280_humidity;BME280_pressure;Samples;Min_cycle;Max_cycle;Signal;HPM_P1;HPM_P2
2021/03/18 00:01:33;;;;;;;11.20;9.20;;;;;;;1.88;79.66;101784.84;4994571;28;20344;-67
2021/03/18 00:04:00;;;;;;;12.20;9.27;;;;;;;1.88;79.61;101790.13;4997318;28;20207;-66
2021/03/18 00:06:27;;;;;;;13.47;9.93;;;;;;;1.87;80.26;101791.00;4994331;28;20277;-67
2021/03/18 00:08:53;;;;;;;13.20;9.70;;;;;;;1.86;80.11;101791.88;4997917;28;20609;-66
2021/03/18 00:11:21;;;;;;;11.77;8.67;;;;;;;1.82;79.50;101785.78;4999293;28;20203;-66
2021/03/18 00:13:47;;;;;;;9.93;8.33;;;;;;;1.76;80.04;101788.47;4997765;28;20249;-66
2021/03/18 00:16:14;;;;;;;14.33;8.70;;;;;;;1.71;79.61;101795.53;4996044;28;20277;-66
2021/03/18 00:18:44;;;;;;;9.90;8.40;;;;;;;1.69;79.95;101792.03;4995855;28;20735;-66
2021/03/18 00:21:11;;;;;;;11.60;9.50;;;;;;;1.66;79.66;101785.03;4996262;28;20238;-67
2021/03/18 00:23:37;;;;;;;11.33;8.77;;;;;;;1.65;79.85;101785.06;4998148;28;20666;-66
2021/03/18 00:26:05;;;;;;;13.47;9.67;;;;;;;1.63;79.93;101787.69;4995492;28;20219;-66
2021/03/18 00:28:31;;;;;;;13.43;9.97;;;;;;;1.64;79.73;101785.94;4995188;28;20310;-68
2021/03/18 00:30:58;;;;;;;13.20;9.73;;;;;;;1.63;79.73;101782.44;4994526;28;20294;-66
2021/03/18 00:33:25;;;;;;;15.17;11.90;;;;;;;1.61;80.00;101784.22;4995427;28;20203;-65
2021/03/18 00:35:52;;;;;;;12.70;10.23;;;;;;;1.61;79.83;101786.00;4999558;28;20210;-66
2021/03/18 00:38:19;;;;;;;16.97;10.57;;;;;;;1.60;79.92;101779.88;5009942;28;20268;-66
2021/03/18 00:40:48;;;;;;;14.17;11.23;;;;;;;1.60;79.76;101784.25;4997994;28;20209;-66
2021/03/18 00:43:17;;;;;;;14.03;10.77;;;;;;;1.59;79.89;101783.38;4994834;28;20208;-66
2021/03/18 00:45:45;;;;;;;16.80;11.87;;;;;;;1.59;80.20;101787.75;5008356;28;20231;-66
2021/03/18 00:48:13;;;;;;;15.30;11.23;;;;;;;1.57;80.28;101781.66;5010016;28;20245;-67
2021/03/18 00:50:43;;;;;;;13.80;10.03;;;;;;;1.57;80.31;101786.91;5008564;28;20743;-64
2021/03/18 00:53:12;;;;;;;11.90;9.70;;;;;;;1.53;80.22;101779.91;5013651;28;20213;-66
2021/03/18 00:55:41;;;;;;;13.23;10.73;;;;;;;1.47;80.17;101785.22;5014008;28;20203;-65
2021/03/18 00:58:07;;;;;;;12.70;10.00;;;;;;;1.42;79.80;101781.78;5013819;28;20288;-67
2021/03/18 01:00:38;;;;;;;12.97;9.80;;;;;;;1.36;80.00;101788.81;5014302;28;20307;-66
2021/03/18 01:03:05;;;;;;;12.70;9.40;;;;;;;1.29;79.85;101789.72;5011230;28;20294;-65
2021/03/18 01:05:35;;;;;;;11.37;9.87;;;;;;;1.25;79.56;101784.53;5014041;28;20276;-65
2021/03/18 01:08:03;;;;;;;12.13;9.43;;;;;;;1.19;79.71;101790.66;5013028;28;20223;-66
2021/03/18 01:10:34;;;;;;;13.40;10.23;;;;;;;1.12;79.80;101791.59;5004949;28;20214;-66
2021/03/18 01:13:01;;;;;;;13.97;10.33;;;;;;;1.10;79.92;101800.34;5011482;28;20207;-66
2021/03/18 01:15:27;;;;;;;12.27;10.27;;;;;;;1.09;80.05;101804.72;5009895;28;20203;-66
2021/03/18 01:17:55;;;;;;;15.50;10.87;;;;;;;1.08;80.07;101799.47;5000909;28;20233;-66
2021/03/18 01:20:21;;;;;;;13.93;10.60;;;;;;;1.09;80.09;101801.22;5009740;28;20211;-65
2021/03/18 01:22:48;;;;;;;13.57;10.20;;;;;;;1.10;80.22;101792.47;5012442;28;20198;-66
2021/03/18 01:25:14;;;;;;;14.23;10.43;;;;;;;1.11;80.29;101800.34;5008943;28;20213;-65
2021/03/18 01:27:42;;;;;;;13.43;10.93;;;;;;;1.10;80.26;101793.34;5000628;28;20314;-67
2021/03/18 01:30:13;;;;;;;13.90;11.27;;;;;;;1.10;80.27;101790.72;5013358;28;20293;-66
2021/03/18 01:32:40;;;;;;;14.77;12.40;;;;;;;1.11;80.26;101786.34;5013541;28;20207;-66
2021/03/18 01:35:10;;;;;;;17.27;13.20;;;;;;;1.11;80.33;101778.47;5012201;28;20341;-65
2021/03/18 01:37:36;;;;;;;17.90;12.53;;;;;;;1.13;80.37;101779.34;5011767;28;20223;-66
2021/03/18 01:40:04;;;;;;;18.73;12.57;;;;;;;1.13;80.65;101780.22;5013954;28;20249;-66
2021/03/18 01:42:31;;;;;;;20.70;13.07;;;;;;;1.14;80.57;101776.69;5012767;28;20213;-66
2021/03/18 01:44:57;;;;;;;19.90;14.17;;;;;;;1.16;80.60;101776.69;5013508;28;20214;-66
2021/03/18 01:47:35;;;;;;;20.33;13.97;;;;;;;1.19;80.79;101774.94;5013164;28;20281;-69
2021/03/18 01:50:01;;;;;;;21.40;12.93;;;;;;;1.19;81.06;101774.94;5012020;28;20217;-67
2021/03/18 01:52:27;;;;;;;18.60;13.87;;;;;;;1.22;81.13;101768.78;5012214;28;20210;-68
2021/03/18 01:54:53;;;;;;;18.40;13.07;;;;;;;1.22;81.12;101774.91;5013091;28;20280;-68
2021/03/18 01:57:20;;;;;;;20.07;13.57;;;;;;;1.24;81.05;101769.66;5012696;28;20223;-68
2021/03/18 01:59:46;;;;;;;18.03;12.67;;;;;;;1.25;81.05;101766.16;5012922;28;20202;-68
2021/03/18 02:02:12;;;;;;;17.43;12.67;;;;;;;1.25;81.20;101766.16;5012235;28;20209;-67
2021/03/18 02:04:39;;;;;;;17.83;13.63;;;;;;;1.23;81.55;101760.91;5011142;28;20203;-68
2021/03/18 02:07:05;;;;;;;16.50;12.70;;;;;;;1.24;81.48;101757.41;5007298;28;20285;-68
2021/03/18 02:09:31;;;;;;;15.83;12.77;;;;;;;1.23;81.47;101760.03;5011971;28;20210;-69
2021/03/18 02:11:58;;;;;;;18.50;12.57;;;;;;;1.23;81.36;101766.16;5012588;28;20199;-68
2021/03/18 02:14:24;;;;;;;16.53;12.60;;;;;;;1.24;81.46;101760.03;5011625;28;20298;-68
2021/03/18 02:16:56;;;;;;;19.03;13.03;;;;;;;1.24;81.59;101760.03;5009609;28;20211;-68
2021/03/18 02:19:41;;;;;;;18.03;12.53;;;;;;;1.24;81.79;101760.03;5009343;28;20656;-70
2021/03/18 02:22:36;;;;;;;18.20;11.87;;;;;;;1.25;81.58;101755.66;5005507;28;20217;-68
2021/03/18 02:25:07;;;;;;;17.83;12.57;;;;;;;1.26;81.93;101754.75;5006777;28;20209;-67
2021/03/18 02:28:13;;;;;;;16.33;12.87;;;;;;;1.24;81.67;101749.53;5009883;28;20303;-68
2021/03/18 02:30:48;;;;;;;19.87;13.00;;;;;;;1.24;81.81;101754.78;5011620;28;20642;-68
2021/03/18 02:34:00;;;;;;;21.30;12.63;;;;;;;1.23;81.57;101750.41;5011426;28;20580;-68
2021/03/18 02:36:45;;;;;;;20.33;13.27;;;;;;;1.22;81.52;101743.44;5009193;28;20209;-69
2021/03/18 02:39:15;;;;;;;17.27;12.53;;;;;;;1.22;81.65;101743.44;5007428;28;20233;-67
2021/03/18 02:41:46;;;;;;;17.70;13.03;;;;;;;1.20;81.69;101739.94;5011307;28;20211;-68
2021/03/18 02:44:17;;;;;;;16.37;12.70;;;;;;;1.20;82.03;101721.56;5011668;28;20626;-68
2021/03/18 02:46:44;;;;;;;17.83;12.60;;;;;;;1.19;81.96;101725.06;5011445;28;20305;-68
2021/03/18 02:49:12;;;;;;;17.10;13.13;;;;;;;1.18;81.93;101722.47;5011062;28;20720;-67
2021/03/18 02:51:43;;;;;;;19.60;13.97;;;;;;;1.18;81.96;101725.09;5011695;28;20211;-68
2021/03/18 02:54:11;;;;;;;21.00;14.10;;;;;;;1.18;81.97;101717.22;5011361;28;20309;-68
2021/03/18 02:56:40;;;;;;;22.03;13.93;;;;;;;1.17;81.97;101718.97;5005561;28;20228;-68
2021/03/18 02:59:08;;;;;;;22.37;14.10;;;;;;;1.16;81.91;101717.22;5011381;28;20599;-67
2021/03/18 03:01:35;;;;;;;19.20;13.77;;;;;;;1.16;82.28;101708.47;5011822;28;20207;-68
2021/03/18 03:04:01;;;;;;;19.50;13.70;;;;;;;1.15;82.16;101710.22;5011334;28;20207;-68
2021/03/18 03:06:30;;;;;;;18.40;14.30;;;;;;;1.14;82.10;101710.25;5011088;28;20223;-69
2021/03/18 03:08:57;;;;;;;20.30;13.37;;;;;;;1.14;82.28;101707.63;5004133;28;20605;-68
2021/03/18 03:11:25;;;;;;;16.63;13.10;;;;;;;1.13;81.97;101700.63;5011128;28;20261;-68
2021/03/18 03:13:52;;;;;;;25.50;14.30;;;;;;;1.12;82.30;101704.13;5011801;28;20566;-68
2021/03/18 03:16:21;;;;;;;19.57;13.93;;;;;;;1.10;81.96;101705.88;5011606;28;20211;-68
2021/03/18 03:18:48;;;;;;;20.33;14.63;;;;;;;1.09;82.19;101707.66;5011166;28;20226;-68
2021/03/18 03:21:17;;;;;;;22.97;14.73;;;;;;;1.07;81.98;101706.81;5011696;28;20298;-69
2021/03/18 03:23:45;;;;;;;19.37;13.93;;;;;;;1.07;82.05;101705.94;5010719;28;20301;-67
2021/03/18 03:26:14;;;;;;;22.13;14.10;;;;;;;1.05;82.06;101708.56;5004992;28;20600;-68
2021/03/18 03:28:41;;;;;;;16.97;13.43;;;;;;;1.04;82.27;101712.06;5010654;28;20313;-68
2021/03/18 03:31:07;;;;;;;19.30;13.43;;;;;;;1.00;82.02;101705.09;5011478;28;20215;-68
2021/03/18 03:33:34;;;;;;;20.17;14.20;;;;;;;1.00;82.15;101707.72;5009236;28;20213;-68
2021/03/18 03:36:00;;;;;;;17.87;14.43;;;;;;;0.97;81.92;101700.75;5010366;28;20225;-69
2021/03/18 03:38:27;;;;;;;22.27;14.23;;;;;;;0.94;81.99;101695.53;5010747;28;20256;-68
2021/03/18 03:40:54;;;;;;;22.57;14.27;;;;;;;0.93;82.13;101700.78;5011057;28;20199;-67
2021/03/18 03:43:21;;;;;;;19.03;13.40;;;;;;;0.90;82.13;101698.16;5011481;28;20306;-68
2021/03/18 03:45:49;;;;;;;17.73;13.77;;;;;;;0.89;82.06;101701.69;5011146;28;20385;-68
2021/03/18 03:48:16;;;;;;;21.27;14.33;;;;;;;0.87;82.05;101700.84;5015203;28;20659;-68
2021/03/18 03:50:42;;;;;;;22.77;14.77;;;;;;;0.84;81.99;101699.09;5011616;28;20297;-68
2021/03/18 03:53:18;;;;;;;20.53;14.87;;;;;;;0.83;82.05;101704.34;5010669;28;20297;-67
2021/03/18 03:55:53;;;;;;;21.17;13.60;;;;;;;0.81;81.88;101699.13;5010937;28;20198;-68
2021/03/18 03:58:31;;;;;;;20.37;14.37;;;;;;;0.81;82.14;101703.50;5006488;28;20308;-68
2021/03/18 04:01:01;;;;;;;19.87;13.60;;;;;;;0.80;81.98;101697.38;5011237;28;20264;-68
2021/03/18 04:03:27;;;;;;;24.93;14.23;;;;;;;0.80;82.14;101699.13;5009978;28;20199;-67
2021/03/18 04:05:57;;;;;;;22.37;14.83;;;;;;;0.78;82.11;101695.63;5011129;28;20270;-67
2021/03/18 04:08:26;;;;;;;22.53;14.57;;;;;;;0.77;82.31;101694.75;5009457;28;20235;-68
2021/03/18 04:10:54;;;;;;;23.93;14.73;;;;;;;0.76;82.26;101689.53;5010921;28;20207;-68
2021/03/18 04:13:21;;;;;;;23.13;14.27;;;;;;;0.76;82.13;101692.16;5009938;28;20217;-68
2021/03/18 04:15:49;;;;;;;20.57;14.33;;;;;;;0.73;82.30;101690.41;5010753;28;20199;-66
2021/03/18 04:18:16;;;;;;;20.60;14.10;;;;;;;0.73;82.53;101695.66;5010904;28;20311;-68
2021/03/18 04:20:43;;;;;;;20.10;14.30;;;;;;;0.71;82.32;101694.81;5009128;28;20687;-68
2021/03/18 04:23:12;;;;;;;21.33;14.20;;;;;;;0.70;82.13;101682.59;5010275;28;20299;-68
2021/03/18 04:25:40;;;;;;;22.20;14.77;;;;;;;0.69;82.26;101678.22;5010066;28;20207;-67
2021/03/18 04:28:09;;;;;;;21.73;15.17;;;;;;;0.66;82.27;101680.88;5011737;28;20237;-68
2021/03/18 04:30:37;;;;;;;23.57;14.97;;;;;;;0.65;82.39;101681.75;5004581;28;20666;-68
2021/03/18 04:33:05;;;;;;;20.40;13.50;;;;;;;0.62;82.27;101681.75;5013915;28;20297;-68
2021/03/18 04:35:32;;;;;;;17.60;12.63;;;;;;;0.56;82.05;101685.28;5016646;28;20207;-68
2021/03/18 04:37:59;;;;;;;18.07;13.53;;;;;;;0.52;82.18;101694.06;5014588;28;20331;-67
2021/03/18 04:40:26;;;;;;;18.37;13.53;;;;;;;0.47;82.17;101693.22;5013445;28;20656;-68
2021/03/18 04:42:52;;;;;;;17.97;12.23;;;;;;;0.44;81.80;101693.22;5014467;28;20210;-68
2021/03/18 04:45:20;;;;;;;17.10;12.70;;;;;;;0.41;82.06;101690.59;5014079;28;20238;-69
2021/03/18 04:47:48;;;;;;;17.03;12.67;;;;;;;0.36;82.18;101687.13;5014085;28;20659;-68
2021/03/18 04:50:19;;;;;;;18.57;13.00;;;;;;;0.33;81.82;101690.66;5012883;28;20297;-68
2021/03/18 04:52:45;;;;;;;19.43;13.67;;;;;;;0.31;81.75;101691.53;5014239;28;20203;-68
2021/03/18 04:55:12;;;;;;;16.57;12.17;;;;;;;0.30;82.06;101692.41;5014046;28;20562;-68
2021/03/18 04:57:43;;;;;;;16.73;12.03;;;;;;;0.25;82.02;101687.19;5013506;28;20245;-68
2021/03/18 05:00:11;;;;;;;18.50;12.70;;;;;;;0.22;82.11;101688.94;5014213;28;20214;-67
2021/03/18 05:02:40;;;;;;;17.73;12.07;;;;;;;0.18;81.86;101684.63;5011992;28;20207;-67
2021/03/18 05:05:08;;;;;;;21.10;13.60;;;;;;;0.14;81.84;101686.38;5014333;28;20766;-66
2021/03/18 05:07:36;;;;;;;19.57;13.07;;;;;;;0.10;81.46;101691.63;5007024;28;20234;-67
2021/03/18 05:10:04;;;;;;;20.53;13.50;;;;;;;0.07;81.68;101681.16;5014091;28;20232;-68
2021/03/18 05:12:31;;;;;;;20.13;14.40;;;;;;;0.04;81.33;101675.94;5011139;28;20218;-68
2021/03/18 05:14:58;;;;;;;22.77;14.10;;;;;;;0.00;81.81;101675.09;5013817;28;20290;-68
2021/03/18 05:17:24;;;;;;;19.77;13.63;;;;;;;-0.02;81.46;101676.84;5014121;28;20227;-68
2021/03/18 05:19:51;;;;;;;20.60;13.80;;;;;;;-0.05;81.50;101672.47;5014086;28;20207;-67
2021/03/18 05:22:17;;;;;;;18.97;13.27;;;;;;;-0.04;81.63;101673.34;5013096;28;20203;-68
2021/03/18 05:24:45;;;;;;;22.47;13.33;;;;;;;-0.07;81.36;101668.13;5013286;28;20215;-67
2021/03/18 05:27:11;;;;;;;19.27;13.97;;;;;;;-0.06;81.82;101677.72;5009019;28;20235;-67
2021/03/18 05:29:37;;;;;;;18.60;13.97;;;;;;;-0.08;81.71;101671.63;4999288;28;20210;-66
2021/03/18 05:32:04;;;;;;;21.90;14.20;;;;;;;-0.10;81.33;101673.38;5009588;28;20214;-66
2021/03/18 05:34:30;;;;;;;20.60;14.10;;;;;;;-0.15;81.25;101673.38;5010826;28;20199;-67
2021/03/18 05:36:56;;;;;;;20.53;13.47;;;;;;;-0.17;81.37;101675.13;5008037;28;20718;-66
2021/03/18 05:39:22;;;;;;;20.30;13.97;;;;;;;-0.22;81.65;101674.28;5006443;28;20234;-66
2021/03/18 05:41:49;;;;;;;21.63;13.80;;;;;;;-0.25;81.38;101679.53;5007297;28;20295;-67
2021/03/18 05:44:17;;;;;;;20.77;14.53;;;;;;;-0.28;81.64;101676.91;5003735;28;20211;-66
2021/03/18 05:46:44;;;;;;;23.63;14.73;;;;;;;-0.28;81.55;101670.81;5009078;28;20325;-66
2021/03/18 05:49:12;;;;;;;27.70;17.20;;;;;;;-0.27;81.34;101678.66;5012303;28;20304;-66
2021/03/18 05:51:43;;;;;;;27.83;17.20;;;;;;;-0.23;81.81;101674.28;5012842;28;20202;-65
2021/03/18 05:54:10;;;;;;;29.20;18.23;;;;;;;-0.20;82.02;101675.16;5012443;28;20687;-65
2021/03/18 05:56:38;;;;;;;33.17;18.87;;;;;;;-0.15;81.90;101680.34;5012547;28;20252;-67
2021/03/18 05:59:06;;;;;;;28.70;18.30;;;;;;;-0.12;82.34;101676.00;5011327;28;20735;-67
2021/03/18 06:01:33;;;;;;;26.50;16.87;;;;;;;-0.10;82.38;101678.59;5009954;28;20300;-65
2021/03/18 06:04:01;;;;;;;27.30;16.80;;;;;;;-0.08;82.04;101666.38;5012507;28;20675;-66
2021/03/18 06:06:28;;;;;;;26.20;15.90;;;;;;;-0.09;82.48;101673.38;5011193;28;20315;-65
2021/03/18 06:08:54;;;;;;;25.20;15.63;;;;;;;-0.11;82.59;101682.97;5003352;28;20886;-64
2021/03/18 06:11:20;;;;;;;24.73;16.27;;;;;;;-0.11;82.31;101672.50;5008044;28;20217;-65
2021/03/18 06:13:46;;;;;;;23.93;16.27;;;;;;;-0.13;82.57;101674.25;5006481;28;20290;-65
2021/03/18 06:16:13;;;;;;;25.30;15.97;;;;;;;-0.14;82.49;101669.88;5005693;28;20233;-67
2021/03/18 06:18:39;;;;;;;21.43;15.20;;;;;;;-0.15;82.57;101672.50;5012340;28;20317;-67
2021/03/18 06:21:06;;;;;;;23.07;14.90;;;;;;;-0.18;82.55;101670.75;5011848;28;20230;-67
2021/03/18 06:23:32;;;;;;;28.80;16.43;;;;;;;-0.18;82.96;101676.00;5008707;28;20203;-65
2021/03/18 06:25:59;;;;;;;29.43;15.13;;;;;;;-0.19;82.46;101676.91;5011834;28;20203;-66
2021/03/18 06:28:26;;;;;;;47.63;19.03;;;;;;;-0.21;82.93;101670.78;5009138;28;20231;-66
2021/03/18 06:30:58;;;;;;;58.77;17.17;;;;;;;-0.22;83.24;101658.59;5009912;28;20701;-67
2021/03/18 06:33:27;;;;;;;56.43;16.73;;;;;;;-0.25;82.83;101660.34;5010910;28;20237;-66
2021/03/18 06:35:54;;;;;;;45.13;16.93;;;;;;;-0.28;83.00;101658.59;5009738;28;20266;-67
2021/03/18 06:38:26;;;;;;;57.20;19.30;;;;;;;-0.29;83.27;101664.69;5009888;28;20239;-65
2021/03/18 06:40:52;;;;;;;73.13;21.03;;;;;;;-0.30;83.14;101659.47;5004318;28;20203;-66
2021/03/18 06:43:18;;;;;;;67.77;20.23;;;;;;;-0.29;83.49;101658.59;5002654;28;20261;-66
2021/03/18 06:45:45;;;;;;;76.27;22.30;;;;;;;-0.28;83.32;101658.59;5008419;28;20207;-67
2021/03/18 06:48:15;;;;;;;129.20;22.13;;;;;;;-0.25;83.14;101663.81;5003886;28;20330;-67
2021/03/18 06:50:44;;;;;;;74.57;21.53;;;;;;;-0.24;83.80;101665.56;5002777;28;20218;-68
2021/03/18 06:53:23;;;;;;;58.23;18.93;;;;;;;-0.22;83.83;101658.59;5010043;28;20211;-66
2021/03/18 06:55:49;;;;;;;48.63;18.53;;;;;;;-0.19;83.97;101668.19;5008526;28;20210;-67
2021/03/18 06:58:20;;;;;;;56.20;18.70;;;;;;;-0.18;83.73;101662.91;4996438;28;20224;-68
2021/03/18 07:00:49;;;;;;;58.27;18.23;;;;;;;-0.15;84.08;101654.19;5001043;28;20293;-68
2021/03/18 07:03:29;;;;;;;49.47;19.20;;;;;;;-0.13;83.99;101655.91;5002252;28;20224;-66
2021/03/18 07:05:56;;;;;;;81.37;21.60;;;;;;;-0.11;84.21;101654.16;5004368;28;20285;-67
2021/03/18 07:08:25;;;;;;;73.93;22.60;;;;;;;-0.08;84.46;101650.66;4999695;28;20309;-71
2021/03/18 07:10:53;;;;;;;83.23;21.40;;;;;;;-0.05;84.52;101655.91;5005488;28;20203;-67
2021/03/18 07:13:21;;;;;;;58.70;20.43;;;;;;;-0.02;84.74;101646.28;5005530;28;20730;-68
2021/03/18 07:15:49;;;;;;;65.90;22.23;;;;;;;0.01;84.50;101650.63;4999749;28;20203;-67
2021/03/18 07:18:15;;;;;;;50.00;22.60;;;;;;;0.05;84.70;101649.72;4997990;28;20229;-69
2021/03/18 07:21:00;;;;;;;48.57;22.77;;;;;;;0.11;84.94;101656.69;5002582;28;20208;-69
2021/03/18 07:23:38;;;;;;;46.13;21.23;;;;;;;0.15;84.67;101656.69;4996539;28;20204;-68
2021/03/18 07:26:19;;;;;;;43.33;20.67;;;;;;;0.20;84.93;101656.66;5000792;28;20207;-68
2021/03/18 07:28:47;;;;;;;51.87;22.60;;;;;;;0.26;85.25;101667.09;5000393;28;20742;-68
2021/03/18 07:31:14;;;;;;;39.00;19.97;;;;;;;0.31;85.06;101655.72;5006424;28;20264;-71
2021/03/18 07:33:40;;;;;;;50.83;23.90;;;;;;;0.38;85.13;101653.06;5002930;28;20714;-68
2021/03/18 07:36:08;;;;;;;42.33;20.50;;;;;;;0.44;85.49;101653.03;4998978;28;20265;-69
2021/03/18 07:38:36;;;;;;;44.63;22.00;;;;;;;0.48;85.33;101649.53;4997630;28;20314;-68
2021/03/18 07:41:03;;;;;;;38.77;19.83;;;;;;;0.52;85.44;101651.25;4999694;28;20214;-67
2021/03/18 07:43:29;;;;;;;37.83;19.67;;;;;;;0.55;85.35;101648.59;4999258;28;20206;-69
2021/03/18 07:45:56;;;;;;;44.90;21.27;;;;;;;0.57;85.72;101645.09;5003837;28;20643;-68
2021/03/18 07:48:24;;;;;;;45.27;20.93;;;;;;;0.59;85.49;101645.94;5025141;22;20234;-66
2021/03/18 07:50:51;;;;;;;43.27;22.37;;;;;;;0.64;85.59;101649.41;5012931;28;20206;-64
2021/03/18 07:53:20;;;;;;;43.00;20.73;;;;;;;0.66;85.76;101650.28;5016050;28;20207;-64
2021/03/18 07:55:48;;;;;;;37.93;20.67;;;;;;;0.68;85.83;101642.41;5019603;28;20637;-64
2021/03/18 07:58:15;;;;;;;40.87;20.60;;;;;;;0.69;85.60;101645.03;5011055;28;20594;-66
2021/03/18 08:00:43;;;;;;;36.00;19.60;;;;;;;0.69;85.55;101642.41;5002406;28;20199;-65
2021/03/18 08:03:29;;;;;;;41.07;21.17;;;;;;;0.71;85.63;101641.50;5005743;28;20234;-64
2021/03/18 08:05:55;;;;;;;36.60;20.80;;;;;;;0.73;85.84;101639.72;5004464;28;20234;-66
2021/03/18 08:08:41;;;;;;;39.80;20.20;;;;;;;0.80;85.61;101649.31;4999059;28;20222;-64
2021/03/18 08:11:13;;;;;;;44.40;21.83;;;;;;;0.82;85.73;101647.53;5004527;28;20211;-65
2021/03/18 08:13:41;;;;;;;40.97;21.13;;;;;;;0.89;85.85;101651.88;5005183;28;20245;-67
2021/03/18 08:16:27;;;;;;;40.10;21.17;;;;;;;0.94;85.89;101655.31;5003569;28;20692;-66
2021/03/18 08:18:54;;;;;;;42.60;20.13;;;;;;;0.99;85.91;101651.78;5002513;28;20222;-67
2021/03/18 08:21:32;;;;;;;39.97;21.50;;;;;;;1.02;85.93;101649.13;5005175;28;20297;-66
2021/03/18 08:23:59;;;;;;;40.50;21.07;;;;;;;1.09;86.16;101651.69;5007002;28;20285;-66
2021/03/18 08:26:44;;;;;;;38.40;21.23;;;;;;;1.13;85.94;101650.78;5005334;28;20245;-66
2021/03/18 08:29:13;;;;;;;30.53;18.03;;;;;;;1.16;85.78;101653.38;5006785;28;20227;-66
2021/03/18 08:31:52;;;;;;;34.77;19.13;;;;;;;1.17;85.88;101663.88;5007260;28;20214;-66
2021/03/18 08:34:20;;;;;;;29.80;17.67;;;;;;;1.19;85.70;101669.09;5005812;28;20762;-66
2021/03/18 08:36:57;;;;;;;28.97;16.60;;;;;;;1.18;85.44;101662.13;5003688;28;20610;-66
2021/03/18 08:39:54;;;;;;;29.20;17.37;;;;;;;1.16;85.61;101662.13;5008708;28;20222;-65
2021/03/18 08:42:43;;;;;;;25.53;16.30;;;;;;;1.16;85.61;101663.88;4925462;29;20214;-66
2021/03/18 08:45:27;;;;;;;32.20;17.93;;;;;;;1.16;85.59;101662.13;4995286;28;20206;-66
2021/03/18 08:47:56;;;;;;;31.10;16.53;;;;;;;1.19;85.70;101662.09;4986908;28;20223;-66
2021/03/18 08:50:50;;;;;;;32.80;17.33;;;;;;;1.21;85.78;101660.34;5006675;28;20210;-66
2021/03/18 08:53:26;;;;;;;29.07;17.37;;;;;;;1.24;85.60;101657.69;5007152;28;20747;-66
2021/03/18 08:55:53;;;;;;;26.83;16.50;;;;;;;1.26;85.46;101661.16;5003725;28;20294;-66
2021/03/18 08:58:19;;;;;;;30.57;17.63;;;;;;;1.27;85.53;101657.63;5005861;28;20222;-66
2021/03/18 09:00:46;;;;;;;28.53;17.37;;;;;;;1.31;85.23;101655.84;5008282;28;20573;-66
2021/03/18 09:03:15;;;;;;;30.60;17.40;;;;;;;1.37;85.35;101664.56;5007433;28;20207;-64
2021/03/18 09:05:49;;;;;;;28.60;17.17;;;;;;;1.43;85.76;101657.53;5008076;28;20685;-65
2021/03/18 09:08:21;;;;;;;27.53;15.97;;;;;;;1.47;85.43;101654.81;5008753;28;20281;-63
2021/03/18 09:10:47;;;;;;;28.47;17.10;;;;;;;1.50;85.31;101653.94;5008815;28;20199;-65
2021/03/18 09:13:15;;;;;;;27.93;17.37;;;;;;;1.55;85.36;101652.13;5010985;28;20218;-64
2021/03/18 09:15:44;;;;;;;26.80;16.47;;;;;;;1.60;85.27;101648.59;5011852;28;20615;-65
2021/03/18 09:18:18;;;;;;;28.13;16.23;;;;;;;1.65;85.18;101652.00;5012038;28;20634;-65
2021/03/18 09:20:48;;;;;;;24.37;15.23;;;;;;;1.70;85.56;101646.72;5011455;28;20219;-65
2021/03/18 09:23:15;;;;;;;26.17;16.63;;;;;;;1.75;85.39;101644.91;5007007;28;20207;-65
2021/03/18 09:25:43;;;;;;;24.93;16.10;;;;;;;1.80;85.27;101639.59;5003312;28;20286;-64
2021/03/18 09:28:10;;;;;;;27.63;16.53;;;;;;;1.84;84.86;101649.19;4997777;28;20395;-64
2021/03/18 09:30:40;;;;;;;23.67;15.70;;;;;;;1.88;84.84;101649.13;5000618;28;20205;-65
2021/03/18 09:33:21;;;;;;;25.60;16.17;;;;;;;1.94;85.05;101646.44;4998900;28;20229;-65
2021/03/18 09:35:49;;;;;;;24.50;15.03;;;;;;;1.99;84.89;101643.75;5002305;28;20290;-65
2021/03/18 09:38:17;;;;;;;25.47;15.47;;;;;;;2.02;84.70;101641.94;5000584;28;20223;-65
2021/03/18 09:40:44;;;;;;;27.47;16.53;;;;;;;2.03;84.24;101629.69;4999475;28;20198;-64
2021/03/18 09:43:11;;;;;;;25.93;15.93;;;;;;;2.06;84.61;101638.41;4999527;28;20246;-63
2021/03/18 09:45:38;;;;;;;27.63;15.83;;;;;;;2.13;84.46;101633.94;5005609;28;20207;-63
2021/03/18 09:48:05;;;;;;;24.47;15.37;;;;;;;2.18;83.91;101636.50;5004601;28;20243;-63
2021/03/18 09:50:32;;;;;;;26.43;15.80;;;;;;;2.22;83.65;101630.31;5002811;28;20217;-63
2021/03/18 09:53:09;;;;;;;24.17;15.47;;;;;;;2.28;83.91;101627.63;5000640;28;20203;-63
2021/03/18 09:55:35;;;;;;;21.23;14.60;;;;;;;2.33;84.04;101631.06;4999613;28;20265;-63
2021/03/18 09:58:10;;;;;;;24.33;15.13;;;;;;;2.40;83.51;101627.44;5000807;28;20293;-63
2021/03/18 10:00:36;;;;;;;24.37;15.67;;;;;;;2.45;83.85;101633.50;5002980;28;20300;-63
2021/03/18 10:03:03;;;;;;;23.73;14.90;;;;;;;2.49;82.84;101626.44;5006213;28;20217;-63
2021/03/18 10:05:29;;;;;;;22.03;14.57;;;;;;;2.53;83.08;101630.75;5005113;28;20295;-63
2021/03/18 10:07:56;;;;;;;24.67;15.37;;;;;;;2.58;83.12;101634.19;5004192;28;20755;-63
2021/03/18 10:10:23;;;;;;;23.73;16.00;;;;;;;2.64;83.12;101631.47;5006401;28;20206;-63
2021/03/18 10:12:50;;;;;;;23.27;14.17;;;;;;;2.68;82.88;101623.53;5011161;28;20218;-62
2021/03/18 10:15:17;;;;;;;21.30;14.47;;;;;;;2.74;82.53;101633.06;5006289;28;20203;-63
2021/03/18 10:17:44;;;;;;;24.20;17.23;;;;;;;2.78;82.31;101625.09;5005127;28;20299;-63
2021/03/18 10:20:16;;;;;;;22.83;15.70;;;;;;;2.82;81.96;101618.03;5001820;28;20207;-63
2021/03/18 10:22:46;;;;;;;21.27;14.63;;;;;;;2.85;81.84;101622.38;4997840;28;20211;-63
2021/03/18 10:25:15;;;;;;;23.43;16.10;;;;;;;2.89;81.85;101613.53;4995044;28;20269;-63
2021/03/18 10:27:43;;;;;;;25.93;17.53;;;;;;;2.94;81.58;101616.97;4993667;28;20712;-63
2021/03/18 10:30:13;;;;;;;22.13;14.93;;;;;;;2.99;81.56;101601.97;4999325;28;20215;-63
2021/03/18 10:32:39;;;;;;;22.23;15.07;;;;;;;3.06;81.34;101600.94;4994517;28;20290;-61
2021/03/18 10:35:08;;;;;;;23.93;16.57;;;;;;;3.10;81.38;101606.13;5003736;28;20214;-63
2021/03/18 10:37:38;;;;;;;21.60;16.23;;;;;;;3.13;81.13;101594.69;5004955;28;20202;-64
2021/03/18 10:40:17;;;;;;;27.50;17.77;;;;;;;3.18;81.06;101595.50;5003610;28;20298;-63
2021/03/18 10:42:48;;;;;;;24.27;18.13;;;;;;;3.21;80.79;101579.66;5001443;28;20207;-64
2021/03/18 10:45:32;;;;;;;25.83;16.47;;;;;;;3.25;80.09;101585.69;5005709;28;20257;-64
2021/03/18 10:48:01;;;;;;;24.07;14.97;;;;;;;3.26;79.89;101584.81;5001756;28;20298;-64
2021/03/18 10:50:30;;;;;;;21.07;14.43;;;;;;;3.29;79.72;101588.25;4999368;28;20203;-66
2021/03/18 10:53:01;;;;;;;23.23;13.43;;;;;;;3.31;79.65;101578.56;5006958;28;20293;-62
2021/03/18 10:55:31;;;;;;;24.10;15.20;;;;;;;3.36;79.66;101582.00;5003803;28;20210;-65
2021/03/18 10:58:00;;;;;;;21.97;16.60;;;;;;;3.39;79.34;101581.94;5002632;28;20728;-65
2021/03/18 11:00:29;;;;;;;23.93;15.90;;;;;;;3.43;79.36;101588.84;4996516;28;20211;-65
2021/03/18 11:03:03;;;;;;;19.07;13.10;;;;;;;3.49;79.72;101575.59;5003598;28;20699;-65
2021/03/18 11:05:32;;;;;;;20.23;13.20;;;;;;;3.56;79.12;101583.38;5004183;28;20206;-64
2021/03/18 11:08:00;;;;;;;20.53;14.53;;;;;;;3.58;78.62;101564.00;5007304;28;20290;-65
2021/03/18 11:10:39;;;;;;;19.63;14.03;;;;;;;3.64;78.17;101565.63;5005955;28;20298;-65
2021/03/18 11:13:08;;;;;;;23.93;15.80;;;;;;;3.70;78.87;101568.16;5006283;28;20202;-64
2021/03/18 11:15:55;;;;;;;22.63;15.77;;;;;;;3.75;78.22;101567.19;5008133;28;20203;-68
2021/03/18 11:18:35;;;;;;;19.50;14.60;;;;;;;3.80;78.37;101556.50;5007400;28;20980;-67
2021/03/18 11:21:03;;;;;;;27.57;17.40;;;;;;;3.81;78.24;101543.31;5005643;28;20294;-67
2021/03/18 11:23:37;;;;;;;39.30;22.80;;;;;;;3.84;77.27;101543.25;5000531;28;20206;-67
2021/03/18 11:26:05;;;;;;;49.83;27.70;;;;;;;3.89;77.59;101547.56;5000924;28;20215;-67
2021/03/18 11:28:32;;;;;;;24.43;15.77;;;;;;;3.94;77.44;101537.78;5005414;28;20233;-66